Time;durP1;ratioP1;P1;durP2;ratioP2;P2;SDS_P1;SDS_P2;PMS_P1;PMS_P2;Temp;Humidity;BMP_temperature;BMP_pressure;BME280_temperature;BME280_humidity;BME280_pressure;Samples;Min_cycle;Max_cycle;Signal;HPM_P1;HPM_P2
2022/09/06 00:00:53;;;;;;;;;;;;;;;;;;5090238;28;19924;-66
2022/09/06 00:03:20;;;;;;;;;;;;;;;;;;5087963;28;19930;-66
2022/09/06 00:05:47;;;;;;;;;;;;;;;;;;5089623;28;19924;-66
2022/09/06 00:08:14;;;;;;;;;;;;;;;;;;5088472;28;20027;-66
2022/09/06 00:10:42;;;;;;;;;;;;;;;;;;5089971;28;19935;-66
2022/09/06 00:13:09;;;;;;;;;;;;;;;;;;5090055;28;19931;-66
2022/09/06 00:15:36;;;;;;;;;;;;;;;;;;5087085;28;20272;-66
2022/09/06 00:18:03;;;;;;;;;;;;;;;;;;5089552;28;19924;-66
2022/09/06 00:20:30;;;;;;;;;;;;;;;;;;5087536;28;20320;-66
2022/09/06 00:22:57;;;;;;;;;;;;;;;;;;5086875;28;19931;-65
2022/09/06 00:25:24;;;;;;;;;;;;;;;;;;5087169;28;19924;-66
2022/09/06 00:27:51;;;;;;;;;;;;;;;;;;5090306;28;19956;-65
2022/09/06 00:30:18;;;;;;;;;;;;;;;;;;5089737;28;20387;-66
2022/09/06 00:32:45;;;;;;;;;;;;;;;;;;5088306;28;20361;-66
2022/09/06 00:35:12;;;;;;;;;;;;;;;;;;5089481;28;20395;-65
2022/09/06 00:37:39;;;;;;;;;;;;;;;;;;5089588;28;19924;-65
2022/09/06 00:40:06;;;;;;;;;;;;;;;;;;5090931;28;19994;-66
2022/09/06 00:42:33;;;;;;;;;;;;;;;;;;5089441;28;19925;-66
2022/09/06 00:45:00;;;;;;;;;;;;;;;;;;5087382;28;19967;-66
2022/09/06 00:47:27;;;;;;;;;;;;;;;;;;5089116;28;19924;-66
2022/09/06 00:49:54;;;;;;;;;;;;;;;;;;5084420;28;19928;-65
2022/09/06 00:52:21;;;;;;;;;;;;;;;;;;5086806;28;19958;-66
2022/09/06 00:54:48;;;;;;;;;;;;;;;;;;5099006;28;19924;-66
2022/09/06 00:57:14;;;;;;;;;;;;;;;;;;5083279;28;19936;-66
2022/09/06 00:59:41;;;;;;;;;;;;;;;;;;5088626;28;19928;-66
2022/09/06 01:02:08;;;;;;;;;;;;;;;;;;5088478;28;19932;-66
2022/09/06 01:04:35;;;;;;;;;;;;;;;;;;5088248;28;19924;-66
2022/09/06 01:07:02;;;;;;;;;;;;;;;;;;5087050;28;19924;-66
2022/09/06 01:09:30;;;;;;;;;;;;;;;;;;5082265;28;19924;-66
2022/09/06 01:11:57;;;;;;;;;;;;;;;;;;5086445;28;19924;-66
2022/09/06 01:14:24;;;;;;;;;;;;;;;;;;5089211;28;19925;-66
2022/09/06 01:16:51;;;;;;;;;;;;;;;;;;5087249;28;19924;-66
2022/09/06 01:19:18;;;;;;;;;;;;;;;;;;5087753;28;19950;-66
2022/09/06 01:21:45;;;;;;;;;;;;;;;;;;5086888;28;19973;-66
2022/09/06 01:24:12;;;;;;;;;;;;;;;;;;5086268;28;20313;-66
2022/09/06 01:26:39;;;;;;;;;;;;;;;;;;5089472;28;19924;-66
2022/09/06 01:29:06;;;;;;;;;;;;;;;;;;5087678;28;20020;-66
2022/09/06 01:31:34;;;;;;;;;;;;;;;;;;5084469;28;19932;-66
2022/09/06 01:34:01;;;;;;;;;;;;;;;;;;5083708;28;19928;-65
2022/09/06 01:36:28;;;;;;;;;;;;;;;;;;5086636;28;20023;-65
2022/09/06 01:38:55;;;;;;;;;;;;;;;;;;5085526;28;20458;-66
2022/09/06 01:41:21;;;;;;;;;;;;;;;;;;5087728;28;20789;-66
2022/09/06 01:43:49;;;;;;;;;;;;;;;;;;5086573;28;20383;-65
2022/09/06 01:46:15;;;;;;;;;;;;;;;;;;5087972;28;19969;-65
2022/09/06 01:48:43;;;;;;;;;;;;;;;;;;5086305;28;19931;-66
2022/09/06 01:51:10;;;;;;;;;;;;;;;;;;5084613;28;19924;-66
2022/09/06 01:53:37;;;;;;;;;;;;;;;;;;5087021;28;19923;-65
2022/09/06 01:56:04;;;;;;;;;;;;;;;;;;5086547;28;20303;-66
2022/09/06 01:58:31;;;;;;;;;;;;;;;;;;5086562;28;19932;-66
2022/09/06 02:00:58;;;;;;;;;;;;;;;;;;5087602;28;19934;-66
2022/09/06 02:03:25;;;;;;;;;;;;;;;;;;5088822;28;20450;-66
2022/09/06 02:05:52;;;;;;;;;;;;;;;;;;5086900;28;19931;-66
2022/09/06 02:08:19;;;;;;;;;;;;;;;;;;5090821;28;19924;-66
2022/09/06 02:10:46;;;;;;;;;;;;;;;;;;5088888;28;19924;-66
2022/09/06 02:13:13;;;;;;;;;;;;;;;;;;5090675;28;19925;-66
2022/09/06 02:15:40;;;;;;;;;;;;;;;;;;5091080;28;19932;-66
2022/09/06 02:18:07;;;;;;;;;;;;;;;;;;5091030;28;19943;-67
2022/09/06 02:20:34;;;;;;;;;;;;;;;;;;5091973;28;19931;-66
2022/09/06 02:23:01;;;;;;;;;;;;;;;;;;5090624;28;19924;-66
2022/09/06 02:25:28;;;;;;;;;;;;;;;;;;5092520;28;20275;-66
2022/09/06 02:27:55;;;;;;;;;;;;;;;;;;5088576;28;20378;-66
2022/09/06 02:30:22;;;;;;;;;;;;;;;;;;5089679;28;19928;-66
2022/09/06 02:32:48;;;;;;;;;;;;;;;;;;5088310;28;20023;-66
2022/09/06 02:35:15;;;;;;;;;;;;;;;;;;5085006;28;19928;-66
2022/09/06 02:37:42;;;;;;;;;;;;;;;;;;5087967;28;19924;-66
2022/09/06 02:40:09;;;;;;;;;;;;;;;;;;5091991;28;20022;-66
2022/09/06 02:42:36;;;;;;;;;;;;;;;;;;5089495;28;19931;-66
2022/09/06 02:45:04;;;;;;;;;;;;;;;;;;5089723;28;19931;-66
2022/09/06 02:47:31;;;;;;;;;;;;;;;;;;5086903;28;19932;-65
2022/09/06 02:49:58;;;;;;;;;;;;;;;;;;5091455;28;19924;-66
2022/09/06 02:52:24;;;;;;;;;;;;;;;;;;5089582;28;19931;-66
2022/09/06 02:54:51;;;;;;;;;;;;;;;;;;5086748;28;19930;-66
2022/09/06 02:57:18;;;;;;;;;;;;;;;;;;5087029;28;19931;-65
2022/09/06 02:59:45;;;;;;;;;;;;;;;;;;5089270;28;19924;-66
2022/09/06 03:02:12;;;;;;;;;;;;;;;;;;5089560;28;19932;-66
2022/09/06 03:04:39;;;;;;;;;;;;;;;;;;5088608;28;19924;-66
2022/09/06 03:07:06;;;;;;;;;;;;;;;;;;5085335;28;19931;-66
2022/09/06 03:09:33;;;;;;;;;;;;;;;;;;5088863;28;19924;-66
2022/09/06 03:12:00;;;;;;;;;;;;;;;;;;5087570;28;20011;-66
2022/09/06 03:14:27;;;;;;;;;;;;;;;;;;5091063;28;19924;-66
2022/09/06 03:16:54;;;;;;;;;;;;;;;;;;5085496;28;19924;-66
2022/09/06 03:19:21;;;;;;;;;;;;;;;;;;5090618;28;19947;-66
2022/09/06 03:21:48;;;;;;;;;;;;;;;;;;5091510;28;19930;-66
2022/09/06 03:24:15;;;;;;;;;;;;;;;;;;5089605;28;19942;-66
2022/09/06 03:26:42;;;;;;;;;;;;;;;;;;5090226;28;19924;-66
2022/09/06 03:29:09;;;;;;;;;;;;;;;;;;5087803;28;19924;-66
2022/09/06 03:31:36;;;;;;;;;;;;;;;;;;5087703;28;19981;-67
2022/09/06 03:34:03;;;;;;;;;;;;;;;;;;5085772;28;20015;-66
2022/09/06 03:36:30;;;;;;;;;;;;;;;;;;5088465;28;19929;-66
2022/09/06 03:38:58;;;;;;;;;;;16.00;99.90;;;;;;5088228;28;19924;-66
2022/09/06 03:41:25;;;;;;;;;;;16.10;99.90;;;;;;5088466;28;19928;-65
2022/09/06 03:43:51;;;;;;;;;;;16.10;99.90;;;;;;5087470;28;19950;-66
2022/09/06 03:46:18;;;;;;;;;;;16.00;99.90;;;;;;5100418;28;20007;-66
2022/09/06 03:48:45;;;;;;;;;;;15.90;99.90;;;;;;5087848;28;20019;-66
2022/09/06 03:51:11;;;;;;;;;;;15.90;99.90;;;;;;5088970;28;20067;-66
2022/09/06 03:53:38;;;;;;;;;;;15.90;99.90;;;;;;5083341;28;20367;-66
2022/09/06 03:56:06;;;;;;;;;;;15.90;99.90;;;;;;5088853;28;19924;-66
2022/09/06 03:58:33;;;;;;;;;;;15.90;99.90;;;;;;5088106;28;19932;-66
2022/09/06 04:01:01;;;;;;;;;;;15.90;99.90;;;;;;5087525;28;19931;-66
2022/09/06 04:03:27;;;;;;;;;;;15.90;99.90;;;;;;5084654;28;20471;-66
2022/09/06 04:05:54;;;;;;;;;;;15.80;99.90;;;;;;5087982;28;19924;-66
2022/09/06 04:08:21;;;;;;;;;;;15.90;99.90;;;;;;5087109;28;20011;-66
2022/09/06 04:10:49;;;;;;;;;;;15.90;99.90;;;;;;5087869;28;19932;-65
2022/09/06 04:13:17;;;;;;;;;;;15.80;99.90;;;;;;5086487;28;19932;-66
2022/09/06 04:15:45;;;;;;;;;;;15.80;99.90;;;;;;5084658;28;19943;-66
2022/09/06 04:18:11;;;;;;;;;;;15.80;99.90;;;;;;5085324;28;20019;-66
2022/09/06 04:20:38;;;;;;;;;;;15.90;99.90;;;;;;5089874;28;19928;-65
2022/09/06 04:23:05;;;;;;;;;;;15.80;99.90;;;;;;5087419;28;20038;-66
2022/09/06 04:25:31;;;;;;;;;;;15.90;99.90;;;;;;5089638;28;19966;-66
2022/09/06 04:27:58;;;;;;;;;;;15.90;99.90;;;;;;5086413;28;20019;-68
2022/09/06 04:30:26;;;;;;;;;;;15.80;99.90;;;;;;5086921;28;20015;-66
2022/09/06 04:32:53;;;;;;;;;;;15.90;99.90;;;;;;5087526;28;20052;-66
2022/09/06 04:35:19;;;;;;;;;;;16.00;99.90;;;;;;5089105;28;20386;-66
2022/09/06 04:37:46;;;;;;;;;;;15.90;99.90;;;;;;5086004;28;20026;-66
2022/09/06 04:40:12;;;;;;;;;;;15.90;99.90;;;;;;5087058;28;20489;-67
2022/09/06 04:42:39;;;;;;;;;;;15.80;99.90;;;;;;5082989;28;20454;-66
2022/09/06 04:45:06;;;;;;;;;;;16.00;99.90;;;;;;5090147;28;19930;-66
2022/09/06 04:47:34;;;;;;;;;;;15.90;99.90;;;;;;5086108;28;20392;-66
2022/09/06 04:50:01;;;;;;;;;;;16.10;99.90;;;;;;5087588;28;20106;-66
2022/09/06 04:52:28;;;;;;;;;;;16.10;99.90;;;;;;5082956;28;19930;-66
2022/09/06 04:54:55;;;;;;;;;;;16.20;99.90;;;;;;5084226;28;19983;-66
2022/09/06 04:57:22;;;;;;;;;;;16.20;99.90;;;;;;5086222;28;19931;-66
2022/09/06 04:59:48;;;;;;;;;;;16.20;99.90;;;;;;5088868;28;19931;-65
2022/09/06 05:02:15;;;;;;;;;;;16.00;99.90;;;;;;5084155;28;19931;-67
2022/09/06 05:04:43;;;;;;;;;;;16.00;99.90;;;;;;5086759;28;19924;-66
2022/09/06 05:07:10;;;;;;;;;;;15.90;99.90;;;;;;5084560;28;19964;-67
2022/09/06 05:09:36;;;;;;;;;;;15.90;99.90;;;;;;5085886;28;19924;-66
2022/09/06 05:12:03;;;;;;;;;;;15.80;99.90;;;;;;5085912;28;19924;-67
2022/09/06 05:14:30;;;;;;;;;;;15.80;99.90;;;;;;5088924;28;19930;-65
2022/09/06 05:16:57;;;;;;;;;;;15.90;99.90;;;;;;5084688;28;19977;-66
2022/09/06 05:19:23;;;;;;;;;;;15.80;99.90;;;;;;5084197;28;19928;-67
2022/09/06 05:21:52;;;;;;;;;;;15.90;99.90;;;;;;5084439;28;20039;-67
2022/09/06 05:24:18;;;;;;;;;;;15.90;99.90;;;;;;5084015;28;20387;-66
2022/09/06 05:26:45;;;;;;;;;;;15.80;99.90;;;;;;5083926;28;20003;-66
2022/09/06 05:29:12;;;;;;;;;;;15.90;99.90;;;;;;5083188;28;20304;-66
2022/09/06 05:31:39;;;;;;;;;;;15.90;99.90;;;;;;5087853;28;20345;-66
2022/09/06 05:34:05;;;;;;;;;;;16.10;99.90;;;;;;5087155;28;19924;-66
2022/09/06 05:36:32;;;;;;;;;;;16.00;99.90;;;;;;5085965;28;19924;-66
2022/09/06 05:39:00;;;;;;;;;;;16.20;99.90;;;;;;5086028;28;19958;-65
2022/09/06 05:41:27;;;;;;;;;;;16.40;99.90;;;;;;5093826;28;20016;-64
2022/09/06 05:43:54;;;;;;;;;;;16.20;99.90;;;;;;5090028;28;19956;-64
2022/09/06 05:46:21;;;;;;;;;;;16.20;99.90;;;;;;5092109;28;20011;-65
2022/09/06 05:48:51;;;;;;;;;;;16.10;99.90;;;;;;5088887;28;19924;-65
2022/09/06 05:51:18;;;;;;;;;;;16.20;99.90;;;;;;5088832;28;20540;-65
2022/09/06 05:53:45;;;;;;;;;;;16.20;99.90;;;;;;5086114;28;19947;-65
2022/09/06 05:56:14;;;;;;;;;;;16.30;99.90;;;;;;5093228;28;19924;-65
2022/09/06 05:58:41;;;;;;;;;;;16.30;99.90;;;;;;5091665;28;19990;-65
2022/09/06 06:01:08;;;;;;;;;;;16.40;99.90;;;;;;5091842;28;20393;-65
2022/09/06 06:03:34;;;;;;;;;;;16.50;99.90;;;;;;5084482;28;20021;-65
2022/09/06 06:06:04;;;;;;;;;;;16.50;99.90;;;;;;5076308;28;19924;-65
2022/09/06 06:08:31;;;;;;;;;;;16.60;99.90;;;;;;5088309;28;19948;-65
2022/09/06 06:11:13;;;;;;;;;;;16.70;99.90;;;;;;5090549;28;20001;-64
2022/09/06 06:13:42;;;;;;;;;;;16.70;99.90;;;;;;5089462;28;19924;-65
2022/09/06 06:16:09;;;;;;;;;;;16.80;99.90;;;;;;5083236;28;19924;-65
2022/09/06 06:18:36;;;;;;;;;;;16.80;99.90;;;;;;5087463;28;19924;-65
2022/09/06 06:21:10;;;;;;;;;;;16.80;99.90;;;;;;5089450;28;19924;-65
2022/09/06 06:23:36;;;;;;;;;;;16.90;99.90;;;;;;5084316;28;19954;-64
2022/09/06 06:26:04;;;;;;;;;;;17.00;99.90;;;;;;5090628;28;20027;-64
2022/09/06 06:28:31;;;;;;;;;;;17.10;99.90;;;;;;5093244;28;19924;-65
2022/09/06 06:30:59;;;;;;;;;;;17.10;99.90;;;;;;5091746;28;19924;-63
2022/09/06 06:33:25;;;;;;;;;;;17.20;99.90;;;;;;5089634;28;19924;-64
2022/09/06 06:35:57;;;;;;;;;;;17.20;99.90;;;;;;5089042;28;19931;-66
2022/09/06 06:38:24;;;;;;;;;;;17.30;99.90;;;;;;5088150;28;19924;-66
2022/09/06 06:40:50;;;;;;;;;;;17.40;99.90;;;;;;5088825;28;21917;-65
2022/09/06 06:43:17;;;;;;;;;;;17.50;99.90;;;;;;5090360;28;19959;-67
2022/09/06 06:45:48;;;;;;;;;;;17.50;99.90;;;;;;5091090;28;20019;-66
2022/09/06 06:48:16;;;;;;;;;;;17.60;99.90;;;;;;5087904;28;19939;-66
2022/09/06 06:50:42;;;;;;;;;;;17.70;99.90;;;;;;5083854;28;20378;-66
2022/09/06 06:53:09;;;;;;;;;;;17.90;99.90;;;;;;5088417;28;19967;-66
2022/09/06 06:55:36;;;;;;;;;;;18.00;99.90;;;;;;5089057;28;20427;-66
2022/09/06 06:58:03;;;;;;;;;;;18.10;99.90;;;;;;5088441;28;19924;-68
2022/09/06 07:00:29;;;;;;;;;;;18.10;99.90;;;;;;5086909;28;19930;-66
2022/09/06 07:02:56;;;;;;;;;;;18.40;99.90;;;;;;5087192;28;20007;-66
2022/09/06 07:05:25;;;;;;;;;;;18.50;99.90;;;;;;5089663;28;20011;-65
2022/09/06 07:07:51;;;;;;;;;;;18.60;99.90;;;;;;5082168;28;19939;-63
2022/09/06 07:10:18;;;;;;;;;;;18.80;99.90;;;;;;5087681;28;20018;-63
2022/09/06 07:12:45;;;;;;;;;;;18.90;99.90;;;;;;5091208;28;20003;-64
2022/09/06 07:15:11;;;;;;;;;;;19.10;99.90;;;;;;5092189;28;20264;-65
2022/09/06 07:17:38;;;;;;;;;;;19.30;99.90;;;;;;5086334;28;19973;-65
2022/09/06 07:20:05;;;;;;;;;;;19.60;99.90;;;;;;5087219;28;19985;-65
2022/09/06 07:22:33;;;;;;;;;;;21.80;99.90;;;;;;5087482;28;19930;-65
2022/09/06 07:25:00;;;;;;;;;;;24.00;99.90;;;;;;5086913;28;19924;-64
2022/09/06 07:27:27;;;;;;;;;;;25.80;99.90;;;;;;5087684;28;20011;-65
2022/09/06 07:29:54;;;;;;;;;;;26.50;99.90;;;;;;5086990;28;20376;-65
2022/09/06 07:32:21;;;;;;;;;;;;;;;;;;5087924;28;20336;-66
2022/09/06 07:34:48;;;;;;;;;;;;;;;;;;5091840;28;19934;-66
2022/09/06 07:37:14;;;;;;;;;;;;;;;;;;5088048;28;19924;-65
2022/09/06 07:39:41;;;;;;;;;;;;;;;;;;5088798;28;19931;-66
2022/09/06 07:42:08;;;;;;;;;;;;;;;;;;5086195;28;19939;-67
2022/09/06 07:44:35;;;;;;;;;;;;;;;;;;5090635;28;19931;-67
2022/09/06 07:47:05;;;;;;;;;;;;;;;;;;5084602;28;20301;-66
2022/09/06 07:49:34;;;;;;;;;;;28.30;90.60;;;;;;5087671;28;20276;-67
2022/09/06 07:52:00;;;;;;;;;;;27.80;93.30;;;;;;5085405;28;19946;-66
2022/09/06 07:54:27;;;;;;;;;;;28.50;94.30;;;;;;5086781;28;19924;-67
2022/09/06 07:56:54;;;;;;;;;;;29.60;90.80;;;;;;5087308;28;19959;-66
2022/09/06 07:59:20;;;;;;;;;;;29.80;88.00;;;;;;5088339;28;19924;-65
2022/09/06 08:01:48;;;;;;;;;;;29.90;85.70;;;;;;5085030;28;19979;-65
2022/09/06 08:04:15;;;;;;;;;;;29.00;80.90;;;;;;5087276;28;19924;-65
2022/09/06 08:06:43;;;;;;;;;;;29.70;81.10;;;;;;5094462;28;19924;-66
2022/09/06 08:09:10;;;;;;;;;;;30.50;80.10;;;;;;5092540;28;19928;-66
2022/09/06 08:11:37;;;;;;;;;;;30.10;77.50;;;;;;5090492;28;19924;-66
2022/09/06 08:14:08;;;;;;;;;;;29.00;83.40;;;;;;5087422;28;20023;-65
2022/09/06 08:16:35;;;;;;;;;;;29.10;84.20;;;;;;5087561;28;20345;-65
2022/09/06 08:19:03;;;;;;;;;;;29.50;82.90;;;;;;5085156;28;19929;-65
2022/09/06 08:21:31;;;;;;;;;;;28.90;83.70;;;;;;5086379;28;19932;-64
2022/09/06 08:24:00;;;;;;;;;;;28.30;86.90;;;;;;5083294;28;21929;-65
2022/09/06 08:26:28;;;;;;;;;;;29.00;85.00;;;;;;5088396;28;19966;-65
2022/09/06 08:28:56;;;;;;;;;;;29.60;83.60;;;;;;5087730;28;19932;-65
2022/09/06 08:31:23;;;;;;;;;;;30.30;79.10;;;;;;5085239;28;20050;-65
2022/09/06 08:33:50;;;;;;;;;;;30.20;78.90;;;;;;5087764;28;19930;-65
2022/09/06 08:36:17;;;;;;;;;;;29.80;83.20;;;;;;5086158;28;20070;-65
2022/09/06 08:38:44;;;;;;;;;;;29.60;83.60;;;;;;5090504;28;19932;-65
2022/09/06 08:41:17;;;;;;;;;;;29.60;85.60;;;;;;5083621;28;19924;-65
2022/09/06 08:43:48;;;;;;;;;;;30.20;82.60;;;;;;5091658;28;19930;-64
2022/09/06 08:46:16;;;;;;;;;;;30.10;83.50;;;;;;5082501;28;20033;-65
2022/09/06 08:48:42;;;;;;;;;;;30.40;79.90;;;;;;5081568;28;19932;-66
2022/09/06 08:51:20;;;;;;;;;;;30.10;81.20;;;;;;5087983;28;20382;-65
2022/09/06 08:53:47;;;;;;;;;;;29.50;82.60;;;;;;5086519;28;19924;-68
2022/09/06 08:56:17;;;;;;;;;;;29.50;86.10;;;;;;5087351;28;19992;-65
2022/09/06 08:58:53;;;;;;;;;;;29.60;85.20;;;;;;5086899;28;20015;-65
2022/09/06 09:01:24;;;;;;;;;;;29.70;84.80;;;;;;5087771;28;19930;-65
2022/09/06 09:03:52;;;;;;;;;;;30.30;82.80;;;;;;5084547;28;20379;-65
2022/09/06 09:06:19;;;;;;;;;;;30.30;82.10;;;;;;5086137;28;20546;-65
2022/09/06 09:08:50;;;;;;;;;;;30.50;83.90;;;;;;5085681;28;19930;-66
2022/09/06 09:11:19;;;;;;;;;;;31.40;81.50;;;;;;5083351;28;19978;-65
2022/09/06 09:13:51;;;;;;;;;;;31.20;77.30;;;;;;5084451;28;19927;-64
2022/09/06 09:16:19;;;;;;;;;;;31.30;76.90;;;;;;5083433;28;19935;-65
2022/09/06 09:18:47;;;;;;;;;;;31.20;75.10;;;;;;5090786;28;19977;-66
2022/09/06 09:21:14;;;;;;;;;;;31.50;75.20;;;;;;5093518;28;19963;-65
2022/09/06 09:23:40;;;;;;;;;;;31.60;72.10;;;;;;5091061;28;19931;-65
2022/09/06 09:26:10;;;;;;;;;;;30.40;74.50;;;;;;5091644;28;19932;-65
2022/09/06 09:28:38;;;;;;;;;;;29.50;79.30;;;;;;5090943;28;19924;-65
2022/09/06 09:31:05;;;;;;;;;;;29.60;80.90;;;;;;5091824;28;19924;-66
2022/09/06 09:33:34;;;;;;;;;;;30.00;79.90;;;;;;5085796;28;20009;-65
2022/09/06 09:36:01;;;;;;;;;;;30.00;78.60;;;;;;5091043;28;20014;-66
2022/09/06 09:38:30;;;;;;;;;;;30.50;76.60;;;;;;5088930;28;20415;-66
2022/09/06 09:40:57;;;;;;;;;;;31.00;75.40;;;;;;5086276;28;20098;-67
2022/09/06 09:43:25;;;;;;;;;;;31.10;72.00;;;;;;5086447;28;19932;-66
2022/09/06 09:46:09;;;;;;;;;;;31.40;70.90;;;;;;5085886;28;20302;-66
2022/09/06 09:48:36;;;;;;;;;;;32.00;68.80;;;;;;5089331;28;20383;-66
2022/09/06 09:51:15;;;;;;;;;;;31.80;64.90;;;;;;5080741;28;19924;-66
2022/09/06 09:53:49;;;;;;;;;;;31.60;64.60;;;;;;5079313;28;20015;-66
2022/09/06 09:56:16;;;;;;;;;;;30.40;68.30;;;;;;5089510;28;19932;-66
2022/09/06 09:58:42;;;;;;;;;;;28.40;75.90;;;;;;5090972;28;19930;-65
2022/09/06 10:01:11;;;;;;;;;;;26.90;89.10;;;;;;5091567;28;19928;-65
2022/09/06 10:03:38;;;;;;;;;;;26.10;93.30;;;;;;5099902;28;19924;-65
2022/09/06 10:06:06;;;;;;;;;;;25.50;95.70;;;;;;5101620;28;19930;-65
2022/09/06 10:08:34;;;;;;;;;;;25.10;97.30;;;;;;5089763;28;19928;-67
2022/09/06 10:11:01;;;;;;;;;;;24.90;99.90;;;;;;5087219;28;19932;-67
2022/09/06 10:13:29;;;;;;;;;;;25.00;99.90;;;;;;5088738;28;20044;-65
2022/09/06 10:15:57;;;;;;;;;;;25.10;99.80;;;;;;5084081;28;19925;-65
2022/09/06 10:18:31;;;;;;;;;;;25.00;99.90;;;;;;5081906;28;19931;-65
2022/09/06 10:20:59;;;;;;;;;;;24.90;99.90;;;;;;5081358;28;19928;-65
2022/09/06 10:23:31;;;;;;;;;;;24.90;99.90;;;;;;5083038;28;19931;-65
2022/09/06 10:26:00;;;;;;;;;;;25.10;99.90;;;;;;5082358;28;19938;-65
2022/09/06 10:28:31;;;;;;;;;;;25.30;99.90;;;;;;5084636;28;19925;-65
2022/09/06 10:31:23;;;;;;;;;;;25.10;99.90;;;;;;5084282;28;20372;-65
2022/09/06 10:33:59;;;;;;;;;;;25.10;99.90;;;;;;5079783;28;20046;-66
2022/09/06 10:36:28;;;;;;;;;;;25.30;99.90;;;;;;5089246;28;19946;-66
2022/09/06 10:38:56;;;;;;;;;;;25.40;99.50;;;;;;5088530;28;19993;-66
2022/09/06 10:41:29;;;;;;;;;;;25.30;99.60;;;;;;5086933;28;19942;-66
2022/09/06 10:44:00;;;;;;;;;;;25.30;99.70;;;;;;5094148;28;19924;-66
2022/09/06 10:46:27;;;;;;;;;;;25.40;99.90;;;;;;5086903;28;19924;-66
2022/09/06 10:48:56;;;;;;;;;;;25.40;99.70;;;;;;5088233;28;20039;-66
2022/09/06 10:51:26;;;;;;;;;;;25.50;99.80;;;;;;5087680;28;19924;-67
2022/09/06 10:53:54;;;;;;;;;;;25.50;99.80;;;;;;5087669;28;20014;-67
2022/09/06 10:56:24;;;;;;;;;;;25.50;99.90;;;;;;5092252;28;19931;-65
2022/09/06 10:58:53;;;;;;;;;;;25.50;99.90;;;;;;5087635;28;19966;-65
2022/09/06 11:01:29;;;;;;;;;;;25.50;99.70;;;;;;5091384;28;19928;-65
2022/09/06 11:03:59;;;;;;;;;;;25.60;98.90;;;;;;5080069;28;19931;-66
2022/09/06 11:06:31;;;;;;;;;;;25.50;99.10;;;;;;5085857;28;19930;-65
2022/09/06 11:09:01;;;;;;;;;;;25.70;98.60;;;;;;5087731;28;20371;-66
2022/09/06 11:11:34;;;;;;;;;;;25.90;98.30;;;;;;5087964;28;19923;-66
2022/09/06 11:14:03;;;;;;;;;;;26.10;98.30;;;;;;5090391;28;19935;-66
2022/09/06 11:16:31;;;;;;;;;;;26.30;97.70;;;;;;5090146;28;19931;-66
2022/09/06 11:19:01;;;;;;;;;;;26.30;96.60;;;;;;5088217;28;20012;-66
2022/09/06 11:21:46;;;;;;;;;;;26.20;96.90;;;;;;5085767;28;19946;-66
2022/09/06 11:24:13;;;;;;;;;;;26.20;95.70;;;;;;5075142;28;20371;-66
2022/09/06 11:26:43;;;;;;;;;;;26.30;95.10;;;;;;5093917;28;19930;-66
2022/09/06 11:29:10;;;;;;;;;;;26.50;95.10;;;;;;5082726;28;19924;-66
2022/09/06 11:31:50;;;;;;;;;;;26.40;94.50;;;;;;5090466;28;19928;-65
2022/09/06 11:34:21;;;;;;;;;;;26.40;95.00;;;;;;5084079;28;19943;-66
2022/09/06 11:36:49;;;;;;;;;;;26.50;95.30;;;;;;5080194;28;19924;-66
2022/09/06 11:39:24;;;;;;;;;;;26.60;95.10;;;;;;5079051;28;21379;-66
2022/09/06 11:41:51;;;;;;;;;;;26.70;94.80;;;;;;5083142;28;19939;-67
2022/09/06 11:44:50;;;;;;;;;;;26.80;94.10;;;;;;5082573;28;20003;-69
2022/09/06 11:47:31;;;;;;;;;;;26.90;93.70;;;;;;5075510;28;19928;-69
2022/09/06 11:49:59;;;;;;;;;;;27.10;93.70;;;;;;5080490;28;19933;-69
2022/09/06 11:52:56;;;;;;;;;;;27.20;92.90;;;;;;5082949;28;19924;-69
2022/09/06 11:55:24;;;;;;;;;;;27.20;91.90;;;;;;5081369;28;19930;-68
2022/09/06 11:57:53;;;;;;;;;;;27.40;92.20;;;;;;5080563;28;19932;-68
2022/09/06 12:00:23;;;;;;;;;;;27.30;91.80;;;;;;5083490;28;20271;-68
2022/09/06 12:02:50;;;;;;;;;;;27.40;91.60;;;;;;5081640;28;19930;-68
2022/09/06 12:05:20;;;;;;;;;;;27.30;90.50;;;;;;5087120;28;20003;-68
2022/09/06 12:08:06;;;;;;;;;;;27.30;90.10;;;;;;5081180;28;19924;-69
2022/09/06 12:10:46;;;;;;;;;;;27.40;90.50;;;;;;5084853;28;19932;-68
2022/09/06 12:13:32;;;;;;;;;;;27.50;89.90;;;;;;5085111;28;19928;-68
2022/09/06 12:15:59;;;;;;;;;;;27.40;89.90;;;;;;5077688;28;19924;-69
2022/09/06 12:18:40;;;;;;;;;;;27.40;89.10;;;;;;5079862;28;19928;-69
2022/09/06 12:21:09;;;;;;;;;;;27.40;86.70;;;;;;5082168;28;19924;-69
2022/09/06 12:23:42;;;;;;;;;;;27.50;87.30;;;;;;5082246;28;20284;-68
2022/09/06 12:26:09;;;;;;;;;;;27.50;87.10;;;;;;5078808;28;19935;-69
2022/09/06 12:28:42;;;;;;;;;;;27.80;87.30;;;;;;5074043;28;19928;-69
2022/09/06 12:31:27;;;;;;;;;;;28.00;85.10;;;;;;5082640;28;19978;-67
2022/09/06 12:33:54;;;;;;;;;;;27.90;83.80;;;;;;5077470;28;19939;-67
2022/09/06 12:36:28;;;;;;;;;;;27.90;83.70;;;;;;5077663;28;21234;-69
2022/09/06 12:38:56;;;;;;;;;;;28.10;81.50;;;;;;5083003;28;19932;-69
2022/09/06 12:41:26;;;;;;;;;;;28.10;80.30;;;;;;5085772;28;19992;-69
2022/09/06 12:44:28;;;;;;;;;;;28.20;79.10;;;;;;5082253;28;19931;-69
2022/09/06 12:46:55;;;;;;;;;;;28.20;78.40;;;;;;5086984;28;20021;-69
2022/09/06 12:49:22;;;;;;;;;;;27.90;76.60;;;;;;5084539;28;19928;-68
2022/09/06 12:51:50;;;;;;;;;;;28.10;76.90;;;;;;5082195;28;19932;-67
2022/09/06 12:54:19;;;;;;;;;;;28.10;76.30;;;;;;5087983;28;19930;-67
2022/09/06 12:56:46;;;;;;;;;;;28.20;75.90;;;;;;5080638;28;19924;-67
2022/09/06 12:59:15;;;;;;;;;;;28.20;74.20;;;;;;5086812;28;20290;-66
2022/09/06 13:01:44;;;;;;;;;;;28.30;73.60;;;;;;5087975;28;20019;-66
2022/09/06 13:04:14;;;;;;;;;;;28.40;73.00;;;;;;5084867;28;19928;-67
2022/09/06 13:06:42;;;;;;;;;;;28.70;69.80;;;;;;5092172;28;19989;-67
2022/09/06 13:09:11;;;;;;;;;;;28.90;67.00;;;;;;5100088;28;19924;-67
2022/09/06 13:11:40;;;;;;;;;;;29.00;63.90;;;;;;5092813;28;20290;-67
2022/09/06 13:14:10;;;;;;;;;;;28.70;65.10;;;;;;5085528;28;19931;-67
2022/09/06 13:16:37;;;;;;;;;;;28.70;65.00;;;;;;5085315;28;20361;-67
2022/09/06 13:19:11;;;;;;;;;;;28.90;62.60;;;;;;5088511;28;19924;-68
2022/09/06 13:21:39;;;;;;;;;;;29.00;62.20;;;;;;5088188;28;19924;-66
2022/09/06 13:24:19;;;;;;;;;;;29.00;60.50;;;;;;5086354;28;20009;-68
2022/09/06 13:26:46;;;;;;;;;;;29.30;59.50;;;;;;5087682;28;20260;-68
2022/09/06 13:29:21;;;;;;;;;;;29.30;57.70;;;;;;5089037;28;22423;-68
2022/09/06 13:31:49;;;;;;;;;;;29.30;57.00;;;;;;5087037;28;19924;-68
2022/09/06 13:34:20;;;;;;;;;;;29.40;56.20;;;;;;5082938;28;19977;-68
2022/09/06 13:36:49;;;;;;;;;;;29.30;56.30;;;;;;5090505;28;19924;-68
2022/09/06 13:39:30;;;;;;;;;;;29.10;54.00;;;;;;5085281;28;20023;-70
2022/09/06 13:42:00;;;;;;;;;;;29.10;55.40;;;;;;5094601;28;19924;-70
2022/09/06 13:44:28;;;;;;;;;;;29.10;53.10;;;;;;5081957;28;20361;-69
2022/09/06 13:46:55;;;;;;;;;;;29.00;54.30;;;;;;5087257;28;20402;-69
2022/09/06 13:49:23;;;;;;;;;;;28.80;55.00;;;;;;5088802;28;20022;-69
2022/09/06 13:51:51;;;;;;;;;;;28.80;56.00;;;;;;5088424;28;19932;-71
2022/09/06 13:54:17;;;;;;;;;;;28.70;56.60;;;;;;5085353;28;19928;-69
2022/09/06 13:56:47;;;;;;;;;;;28.30;56.50;;;;;;5083259;28;19923;-69
2022/09/06 13:59:14;;;;;;;;;;;28.10;57.10;;;;;;5082034;28;19954;-69
2022/09/06 14:01:41;;;;;;;;;;;28.10;59.50;;;;;;5086085;28;20027;-68
2022/09/06 14:04:09;;;;;;;;;;;28.20;58.70;;;;;;5086635;28;20378;-68
2022/09/06 14:06:36;;;;;;;;;;;28.40;58.20;;;;;;5083703;28;19924;-68
2022/09/06 14:09:04;;;;;;;;;;;28.40;58.10;;;;;;5086427;28;19975;-68
2022/09/06 14:11:30;;;;;;;;;;;28.50;58.00;;;;;;5088277;28;20418;-67
2022/09/06 14:13:58;;;;;;;;;;;28.80;57.00;;;;;;5084471;28;19979;-68
2022/09/06 14:16:25;;;;;;;;;;;28.90;56.10;;;;;;5094037;28;20046;-68
2022/09/06 14:18:52;;;;;;;;;;;28.90;56.40;;;;;;5084869;28;20002;-67
2022/09/06 14:21:19;;;;;;;;;;;28.80;56.10;;;;;;5087281;28;19924;-67
2022/09/06 14:23:49;;;;;;;;;;;28.80;55.70;;;;;;5085037;28;20195;-68
2022/09/06 14:26:17;;;;;;;;;;;28.70;55.60;;;;;;5083593;28;19970;-68
2022/09/06 14:28:44;;;;;;;;;;;28.70;55.60;;;;;;5088192;28;19950;-68
2022/09/06 14:31:13;;;;;;;;;;;28.60;54.70;;;;;;5082110;28;19931;-68
2022/09/06 14:33:39;;;;;;;;;;;28.60;55.90;;;;;;5075514;28;19940;-68
2022/09/06 14:36:07;;;;;;;;;;;28.60;55.10;;;;;;5087901;28;19936;-68
2022/09/06 14:38:35;;;;;;;;;;;28.50;55.80;;;;;;5082929;28;20023;-68
2022/09/06 14:41:02;;;;;;;;;;;28.60;56.00;;;;;;5082542;28;20007;-68
2022/09/06 14:43:29;;;;;;;;;;;28.60;53.50;;;;;;5078734;28;20137;-69
2022/09/06 14:45:57;;;;;;;;;;;28.50;53.80;;;;;;5088094;28;19963;-69
2022/09/06 14:48:28;;;;;;;;;;;28.50;56.10;;;;;;5093392;28;19928;-68
2022/09/06 14:50:55;;;;;;;;;;;28.40;56.00;;;;;;5086869;28;20383;-68
2022/09/06 14:53:22;;;;;;;;;;;28.30;54.60;;;;;;5086221;28;19924;-69
2022/09/06 14:55:49;;;;;;;;;;;28.20;54.30;;;;;;5090376;28;19978;-68
2022/09/06 14:58:15;;;;;;;;;;;28.10;54.00;;;;;;5091281;28;19938;-68